sensor_id;sensor_type;location;lat;lon;timestamp;temperature;humidity
11934;DHT22;6026;48.784;9.198;2023-04-25T00:01:59;8.80;99.90
11934;DHT22;6026;48.784;9.198;2023-04-25T00:04:25;8.80;99.90
11934;DHT22;6026;48.784;9.198;2023-04-25T00:06:53;8.70;99.90
11934;DHT22;6026;48.784;9.198;2023-04-25T00:09:19;8.70;99.90
11934;DHT22;6026;48.784;9.198;2023-04-25T00:11:45;8.60;99.90
11934;DHT22;6026;48.784;9.198;2023-04-25T00:14:10;8.60;99.90
11934;DHT22;6026;48.784;9.198;2023-04-25T00:16:36;8.60;99.90
11934;DHT22;6026;48.784;9.198;2023-04-25T00:19:02;8.60;99.90
11934;DHT22;6026;48.784;9.198;2023-04-25T00:21:28;8.50;99.90
11934;DHT22;6026;48.784;9.198;2023-04-25T00:23:54;8.50;99.90
11934;DHT22;6026;48.784;9.198;2023-04-25T00:26:20;8.50;99.90
11934;DHT22;6026;48.784;9.198;2023-04-25T00:28:47;8.50;99.90
11934;DHT22;6026;48.784;9.198;2023-04-25T00:31:13;8.50;99.90
11934;DHT22;6026;48.784;9.198;2023-04-25T00:33:38;8.50;99.90
11934;DHT22;6026;48.784;9.198;2023-04-25T00:36:04;8.50;99.90
11934;DHT22;6026;48.784;9.198;2023-04-25T00:38:30;8.50;99.90
11934;DHT22;6026;48.784;9.198;2023-04-25T00:40:55;8.50;99.90
11934;DHT22;6026;48.784;9.198;2023-04-25T00:43:22;8.50;99.90
11934;DHT22;6026;48.784;9.198;2023-04-25T00:45:48;8.50;99.90
11934;DHT22;6026;48.784;9.198;2023-04-25T00:48:15;8.50;99.90
11934;DHT22;6026;48.784;9.198;2023-04-25T00:50:41;8.50;99.90
11934;DHT22;6026;48.784;9.198;2023-04-25T00:53:07;8.50;99.90
11934;DHT22;6026;48.784;9.198;2023-04-25T00:55:35;8.50;99.90
11934;DHT22;6026;48.784;9.198;2023-04-25T00:58:01;8.40;99.90
11934;DHT22;6026;48.784;9.198;2023-04-25T01:00:27;8.40;99.90
11934;DHT22;6026;48.784;9.198;2023-04-25T01:02:52;8.40;99.90
11934;DHT22;6026;48.784;9.198;2023-04-25T01:05:18;8.40;99.90
11934;DHT22;6026;48.784;9.198;2023-04-25T01:07:44;8.40;99.90
11934;DHT22;6026;48.784;9.198;2023-04-25T01:10:11;8.40;99.90
11934;DHT22;6026;48.784;9.198;2023-04-25T01:12:36;8.40;99.90
11934;DHT22;6026;48.784;9.198;2023-04-25T01:15:02;8.40;99.90
11934;DHT22;6026;48.784;9.198;2023-04-25T01:17:28;8.40;99.90
11934;DHT22;6026;48.784;9.198;2023-04-25T01:19:54;8.40;99.90
11934;DHT22;6026;48.784;9.198;2023-04-25T01:22:20;8.40;99.90
11934;DHT22;6026;48.784;9.198;2023-04-25T01:24:46;8.40;99.90
11934;DHT22;6026;48.784;9.198;2023-04-25T01:27:12;8.40;99.90
11934;DHT22;6026;48.784;9.198;2023-04-25T01:29:38;8.50;99.90
11934;DHT22;6026;48.784;9.198;2023-04-25T01:32:05;8.40;99.90
11934;DHT22;6026;48.784;9.198;2023-04-25T01:34:31;8.40;99.90
11934;DHT22;6026;48.784;9.198;2023-04-25T01:36:57;8.40;99.90
11934;DHT22;6026;48.784;9.198;2023-04-25T01:39:24;8.40;99.90
11934;DHT22;6026;48.784;9.198;2023-04-25T01:41:50;8.40;99.90
11934;DHT22;6026;48.784;9.198;2023-04-25T01:44:16;8.30;99.90
11934;DHT22;6026;48.784;9.198;2023-04-25T01:46:42;8.40;99.90
11934;DHT22;6026;48.784;9.198;2023-04-25T01:49:07;8.40;99.90
11934;DHT22;6026;48.784;9.198;2023-04-25T01:51:33;8.40;99.90
11934;DHT22;6026;48.784;9.198;2023-04-25T01:53:59;8.40;99.90
11934;DHT22;6026;48.784;9.198;2023-04-25T01:56:30;8.40;99.90
11934;DHT22;6026;48.784;9.198;2023-04-25T01:58:56;8.40;99.90
11934;DHT22;6026;48.784;9.198;2023-04-25T02:01:21;8.30;99.90
11934;DHT22;6026;48.784;9.198;2023-04-25T02:03:47;8.30;99.90
11934;DHT22;6026;48.784;9.198;2023-04-25T02:06:12;8.30;99.90
11934;DHT22;6026;48.784;9.198;2023-04-25T02:08:38;8.30;99.90
11934;DHT22;6026;48.784;9.198;2023-04-25T02:11:04;8.30;99.90
11934;DHT22;6026;48.784;9.198;2023-04-25T02:13:29;8.30;99.90
11934;DHT22;6026;48.784;9.198;2023-04-25T02:15:55;8.30;99.90
11934;DHT22;6026;48.784;9.198;2023-04-25T02:18:20;8.30;99.90
11934;DHT22;6026;48.784;9.198;2023-04-25T02:20:46;8.30;99.90
11934;DHT22;6026;48.784;9.198;2023-04-25T02:23:12;8.30;99.90
11934;DHT22;6026;48.784;9.198;2023-04-25T02:25:37;8.30;99.90
11934;DHT22;6026;48.784;9.198;2023-04-25T02:28:03;8.30;99.90
11934;DHT22;6026;48.784;9.198;2023-04-25T02:30:29;8.20;99.90
11934;DHT22;6026;48.784;9.198;2023-04-25T02:32:54;8.20;99.90
11934;DHT22;6026;48.784;9.198;2023-04-25T02:35:20;8.20;99.90
11934;DHT22;6026;48.784;9.198;2023-04-25T02:37:46;8.20;99.90
11934;DHT22;6026;48.784;9.198;2023-04-25T02:40:11;8.20;99.90
11934;DHT22;6026;48.784;9.198;2023-04-25T02:42:37;8.20;99.90
11934;DHT22;6026;48.784;9.198;2023-04-25T02:45:03;8.20;99.90
11934;DHT22;6026;48.784;9.198;2023-04-25T02:47:29;8.20;99.90
11934;DHT22;6026;48.784;9.198;2023-04-25T02:49:54;8.10;99.90
11934;DHT22;6026;48.784;9.198;2023-04-25T02:52:20;8.20;99.90
11934;DHT22;6026;48.784;9.198;2023-04-25T02:54:46;8.10;99.90
11934;DHT22;6026;48.784;9.198;2023-04-25T02:57:12;8.10;99.90
11934;DHT22;6026;48.784;9.198;2023-04-25T02:59:38;8.10;99.90
11934;DHT22;6026;48.784;9.198;2023-04-25T03:02:03;8.10;99.90
11934;DHT22;6026;48.784;9.198;2023-04-25T03:04:29;8.10;99.90
11934;DHT22;6026;48.784;9.198;2023-04-25T03:06:55;8.10;99.90
11934;DHT22;6026;48.784;9.198;2023-04-25T03:09:21;8.10;99.90
11934;DHT22;6026;48.784;9.198;2023-04-25T03:11:46;8.10;99.90
11934;DHT22;6026;48.784;9.198;2023-04-25T03:14:12;8.10;99.90
11934;DHT22;6026;48.784;9.198;2023-04-25T03:16:38;8.10;99.90
11934;DHT22;6026;48.784;9.198;2023-04-25T03:19:04;8.10;99.90
11934;DHT22;6026;48.784;9.198;2023-04-25T03:21:32;8.10;99.90
11934;DHT22;6026;48.784;9.198;2023-04-25T03:24:01;8.10;99.90
11934;DHT22;6026;48.784;9.198;2023-04-25T03:26:27;8.10;99.90
11934;DHT22;6026;48.784;9.198;2023-04-25T03:28:52;8.10;99.90
11934;DHT22;6026;48.784;9.198;2023-04-25T03:31:18;8.10;99.90
11934;DHT22;6026;48.784;9.198;2023-04-25T03:33:44;8.10;99.90
11934;DHT22;6026;48.784;9.198;2023-04-25T03:36:09;8.10;99.90
11934;DHT22;6026;48.784;9.198;2023-04-25T03:38:35;8.10;99.90
11934;DHT22;6026;48.784;9.198;2023-04-25T03:41:01;8.00;99.90
11934;DHT22;6026;48.784;9.198;2023-04-25T03:43:27;8.00;99.90
11934;DHT22;6026;48.784;9.198;2023-04-25T03:45:53;8.00;99.90
11934;DHT22;6026;48.784;9.198;2023-04-25T03:48:18;8.00;99.90
11934;DHT22;6026;48.784;9.198;2023-04-25T03:50:47;8.00;99.90
11934;DHT22;6026;48.784;9.198;2023-04-25T03:53:12;8.00;99.90
11934;DHT22;6026;48.784;9.198;2023-04-25T03:55:38;8.00;99.90
11934;DHT22;6026;48.784;9.198;2023-04-25T03:58:03;8.00;99.90
11934;DHT22;6026;48.784;9.198;2023-04-25T04:00:29;8.10;99.90
11934;DHT22;6026;48.784;9.198;2023-04-25T04:02:54;8.00;99.90
11934;DHT22;6026;48.784;9.198;2023-04-25T04:05:20;8.00;99.90
11934;DHT22;6026;48.784;9.198;2023-04-25T04:07:46;7.90;99.90
11934;DHT22;6026;48.784;9.198;2023-04-25T04:10:12;7.90;99.90
11934;DHT22;6026;48.784;9.198;2023-04-25T04:12:38;7.90;99.90
11934;DHT22;6026;48.784;9.198;2023-04-25T04:15:05;7.90;99.90
11934;DHT22;6026;48.784;9.198;2023-04-25T04:17:31;7.90;99.90
11934;DHT22;6026;48.784;9.198;2023-04-25T04:19:57;7.80;99.90
11934;DHT22;6026;48.784;9.198;2023-04-25T04:22:23;7.80;99.90
11934;DHT22;6026;48.784;9.198;2023-04-25T04:24:48;7.70;99.90
11934;DHT22;6026;48.784;9.198;2023-04-25T04:27:16;7.70;99.90
11934;DHT22;6026;48.784;9.198;2023-04-25T04:29:42;7.70;99.90
11934;DHT22;6026;48.784;9.198;2023-04-25T04:32:08;7.70;99.90
11934;DHT22;6026;48.784;9.198;2023-04-25T04:34:34;7.80;99.90
11934;DHT22;6026;48.784;9.198;2023-04-25T04:37:00;7.80;99.90
11934;DHT22;6026;48.784;9.198;2023-04-25T04:39:26;7.80;99.90
11934;DHT22;6026;48.784;9.198;2023-04-25T04:41:51;7.80;99.90
11934;DHT22;6026;48.784;9.198;2023-04-25T04:44:17;7.80;99.90
11934;DHT22;6026;48.784;9.198;2023-04-25T04:46:43;7.80;99.90
11934;DHT22;6026;48.784;9.198;2023-04-25T04:49:10;7.90;99.90
11934;DHT22;6026;48.784;9.198;2023-04-25T04:51:37;7.90;99.90
11934;DHT22;6026;48.784;9.198;2023-04-25T04:54:03;7.90;99.90
11934;DHT22;6026;48.784;9.198;2023-04-25T04:56:29;8.00;99.90
11934;DHT22;6026;48.784;9.198;2023-04-25T04:58:56;8.00;99.90
11934;DHT22;6026;48.784;9.198;2023-04-25T05:01:22;8.00;99.90
11934;DHT22;6026;48.784;9.198;2023-04-25T05:03:48;8.00;99.90
11934;DHT22;6026;48.784;9.198;2023-04-25T05:06:14;8.00;99.90
11934;DHT22;6026;48.784;9.198;2023-04-25T05:08:39;8.00;99.90
11934;DHT22;6026;48.784;9.198;2023-04-25T05:11:05;8.00;99.90
11934;DHT22;6026;48.784;9.198;2023-04-25T05:13:31;8.00;99.90
11934;DHT22;6026;48.784;9.198;2023-04-25T05:15:56;8.10;99.90
11934;DHT22;6026;48.784;9.198;2023-04-25T05:18:22;8.10;99.90
11934;DHT22;6026;48.784;9.198;2023-04-25T05:20:47;8.10;99.90
11934;DHT22;6026;48.784;9.198;2023-04-25T05:23:13;8.20;99.90
11934;DHT22;6026;48.784;9.198;2023-04-25T05:25:39;8.20;99.90
11934;DHT22;6026;48.784;9.198;2023-04-25T05:28:04;8.30;99.90
11934;DHT22;6026;48.784;9.198;2023-04-25T05:30:31;8.30;99.90
11934;DHT22;6026;48.784;9.198;2023-04-25T05:32:56;8.40;99.90
11934;DHT22;6026;48.784;9.198;2023-04-25T05:35:22;8.40;99.90
11934;DHT22;6026;48.784;9.198;2023-04-25T05:37:47;8.40;99.90
11934;DHT22;6026;48.784;9.198;2023-04-25T05:40:13;8.40;99.90
11934;DHT22;6026;48.784;9.198;2023-04-25T05:42:38;8.50;99.90
11934;DHT22;6026;48.784;9.198;2023-04-25T05:45:04;8.50;99.90
11934;DHT22;6026;48.784;9.198;2023-04-25T05:47:30;8.60;99.90
11934;DHT22;6026;48.784;9.198;2023-04-25T05:49:56;8.60;99.90
11934;DHT22;6026;48.784;9.198;2023-04-25T05:52:21;8.60;99.90
11934;DHT22;6026;48.784;9.198;2023-04-25T05:54:47;8.60;99.90
11934;DHT22;6026;48.784;9.198;2023-04-25T05:57:24;8.60;99.90
11934;DHT22;6026;48.784;9.198;2023-04-25T05:59:50;8.50;99.90
11934;DHT22;6026;48.784;9.198;2023-04-25T06:02:16;8.60;99.90
11934;DHT22;6026;48.784;9.198;2023-04-25T06:04:42;8.50;99.90
11934;DHT22;6026;48.784;9.198;2023-04-25T06:07:08;8.40;99.90
11934;DHT22;6026;48.784;9.198;2023-04-25T06:09:34;8.30;99.90
11934;DHT22;6026;48.784;9.198;2023-04-25T06:12:00;8.30;99.90
11934;DHT22;6026;48.784;9.198;2023-04-25T06:14:26;8.40;99.90
11934;DHT22;6026;48.784;9.198;2023-04-25T06:16:52;8.40;99.90
11934;DHT22;6026;48.784;9.198;2023-04-25T06:19:17;8.40;99.90
11934;DHT22;6026;48.784;9.198;2023-04-25T06:21:44;8.40;99.90
11934;DHT22;6026;48.784;9.198;2023-04-25T06:24:10;8.50;99.90
11934;DHT22;6026;48.784;9.198;2023-04-25T06:26:35;8.50;99.90
11934;DHT22;6026;48.784;9.198;2023-04-25T06:29:01;8.60;99.90
11934;DHT22;6026;48.784;9.198;2023-04-25T06:31:27;8.70;99.90
11934;DHT22;6026;48.784;9.198;2023-04-25T06:33:54;8.70;99.90
11934;DHT22;6026;48.784;9.198;2023-04-25T06:36:20;8.70;99.90
11934;DHT22;6026;48.784;9.198;2023-04-25T06:38:50;8.80;99.90
11934;DHT22;6026;48.784;9.198;2023-04-25T06:41:16;8.90;99.90
11934;DHT22;6026;48.784;9.198;2023-04-25T06:43:41;8.90;99.90
11934;DHT22;6026;48.784;9.198;2023-04-25T06:46:07;8.90;99.90
11934;DHT22;6026;48.784;9.198;2023-04-25T06:48:33;8.90;99.90
11934;DHT22;6026;48.784;9.198;2023-04-25T06:50:58;8.90;99.90
11934;DHT22;6026;48.784;9.198;2023-04-25T06:53:24;9.00;99.90
11934;DHT22;6026;48.784;9.198;2023-04-25T06:55:49;9.00;99.90
11934;DHT22;6026;48.784;9.198;2023-04-25T06:58:15;8.90;99.90
11934;DHT22;6026;48.784;9.198;2023-04-25T07:00:41;9.00;99.90
11934;DHT22;6026;48.784;9.198;2023-04-25T07:03:07;9.00;99.90
11934;DHT22;6026;48.784;9.198;2023-04-25T07:05:32;9.00;99.90
11934;DHT22;6026;48.784;9.198;2023-04-25T07:07:58;9.10;99.90
11934;DHT22;6026;48.784;9.198;2023-04-25T07:10:23;9.00;99.90
11934;DHT22;6026;48.784;9.198;2023-04-25T07:12:49;9.10;99.90
11934;DHT22;6026;48.784;9.198;2023-04-25T07:15:14;9.10;99.90
11934;DHT22;6026;48.784;9.198;2023-04-25T07:17:40;9.10;99.90
11934;DHT22;6026;48.784;9.198;2023-04-25T07:20:06;8.90;99.90
11934;DHT22;6026;48.784;9.198;2023-04-25T07:22:33;8.90;99.90
11934;DHT22;6026;48.784;9.198;2023-04-25T07:24:58;8.80;99.90
11934;DHT22;6026;48.784;9.198;2023-04-25T07:27:24;8.80;99.90
11934;DHT22;6026;48.784;9.198;2023-04-25T07:29:49;8.70;99.90
11934;DHT22;6026;48.784;9.198;2023-04-25T07:32:15;8.70;99.90
11934;DHT22;6026;48.784;9.198;2023-04-25T07:34:40;8.70;99.90
11934;DHT22;6026;48.784;9.198;2023-04-25T07:37:06;8.70;99.90
11934;DHT22;6026;48.784;9.198;2023-04-25T07:39:32;8.70;99.90
11934;DHT22;6026;48.784;9.198;2023-04-25T07:41:57;8.80;99.90
11934;DHT22;6026;48.784;9.198;2023-04-25T07:44:27;8.70;99.90
11934;DHT22;6026;48.784;9.198;2023-04-25T07:46:53;8.70;99.90
11934;DHT22;6026;48.784;9.198;2023-04-25T07:49:18;8.60;99.90
11934;DHT22;6026;48.784;9.198;2023-04-25T07:51:44;8.60;99.90
11934;DHT22;6026;48.784;9.198;2023-04-25T07:54:12;8.40;99.90
11934;DHT22;6026;48.784;9.198;2023-04-25T07:56:37;8.40;99.90
11934;DHT22;6026;48.784;9.198;2023-04-25T07:59:03;8.30;99.90
11934;DHT22;6026;48.784;9.198;2023-04-25T08:01:28;8.20;99.90
11934;DHT22;6026;48.784;9.198;2023-04-25T08:03:54;8.20;99.90
11934;DHT22;6026;48.784;9.198;2023-04-25T08:06:19;8.10;99.90
11934;DHT22;6026;48.784;9.198;2023-04-25T08:08:45;8.00;99.90
11934;DHT22;6026;48.784;9.198;2023-04-25T08:11:11;7.90;99.90
11934;DHT22;6026;48.784;9.198;2023-04-25T08:13:36;7.80;99.90
11934;DHT22;6026;48.784;9.198;2023-04-25T08:16:02;7.70;99.90
11934;DHT22;6026;48.784;9.198;2023-04-25T08:18:27;7.70;99.90
11934;DHT22;6026;48.784;9.198;2023-04-25T08:20:53;7.60;99.90
11934;DHT22;6026;48.784;9.198;2023-04-25T08:23:18;7.60;99.90
11934;DHT22;6026;48.784;9.198;2023-04-25T08:25:44;7.60;99.90
11934;DHT22;6026;48.784;9.198;2023-04-25T08:28:09;7.60;99.90
11934;DHT22;6026;48.784;9.198;2023-04-25T08:30:36;7.50;99.90
11934;DHT22;6026;48.784;9.198;2023-04-25T08:33:01;7.50;99.90
11934;DHT22;6026;48.784;9.198;2023-04-25T08:35:27;7.50;99.90
11934;DHT22;6026;48.784;9.198;2023-04-25T08:37:52;7.50;99.90
11934;DHT22;6026;48.784;9.198;2023-04-25T08:40:19;7.50;99.90
11934;DHT22;6026;48.784;9.198;2023-04-25T08:42:53;7.50;99.90
11934;DHT22;6026;48.784;9.198;2023-04-25T08:45:18;7.50;99.90
11934;DHT22;6026;48.784;9.198;2023-04-25T08:47:45;7.50;99.90
11934;DHT22;6026;48.784;9.198;2023-04-25T08:50:14;7.40;99.90
11934;DHT22;6026;48.784;9.198;2023-04-25T08:52:47;7.40;99.90
11934;DHT22;6026;48.784;9.198;2023-04-25T08:55:14;7.40;99.90
11934;DHT22;6026;48.784;9.198;2023-04-25T08:57:42;7.30;99.90
11934;DHT22;6026;48.784;9.198;2023-04-25T09:00:11;7.30;99.90
11934;DHT22;6026;48.784;9.198;2023-04-25T09:02:39;7.30;99.90
11934;DHT22;6026;48.784;9.198;2023-04-25T09:05:05;7.30;99.90
11934;DHT22;6026;48.784;9.198;2023-04-25T09:07:32;7.20;99.90
11934;DHT22;6026;48.784;9.198;2023-04-25T09:09:58;7.20;99.90
11934;DHT22;6026;48.784;9.198;2023-04-25T09:12:29;7.20;99.90
11934;DHT22;6026;48.784;9.198;2023-04-25T09:17:30;7.30;99.90
11934;DHT22;6026;48.784;9.198;2023-04-25T09:20:13;7.30;99.90
11934;DHT22;6026;48.784;9.198;2023-04-25T09:22:39;7.30;99.90
11934;DHT22;6026;48.784;9.198;2023-04-25T09:25:12;7.30;99.90
11934;DHT22;6026;48.784;9.198;2023-04-25T09:27:50;7.30;99.90
11934;DHT22;6026;48.784;9.198;2023-04-25T09:30:29;7.30;99.90
11934;DHT22;6026;48.784;9.198;2023-04-25T09:33:10;7.30;99.90
11934;DHT22;6026;48.784;9.198;2023-04-25T09:35:40;7.40;99.90
11934;DHT22;6026;48.784;9.198;2023-04-25T09:40:42;7.30;99.90
11934;DHT22;6026;48.784;9.198;2023-04-25T09:45:46;7.30;99.90
11934;DHT22;6026;48.784;9.198;2023-04-25T09:48:21;7.30;99.90
11934;DHT22;6026;48.784;9.198;2023-04-25T09:51:06;7.30;99.90
11934;DHT22;6026;48.784;9.198;2023-04-25T09:53:43;7.30;99.90
11934;DHT22;6026;48.784;9.198;2023-04-25T09:56:11;7.20;99.90
11934;DHT22;6026;48.784;9.198;2023-04-25T09:58:39;7.20;99.90
11934;DHT22;6026;48.784;9.198;2023-04-25T10:01:07;7.20;99.90
11934;DHT22;6026;48.784;9.198;2023-04-25T10:03:34;7.20;99.90
11934;DHT22;6026;48.784;9.198;2023-04-25T10:06:02;7.30;99.90
11934;DHT22;6026;48.784;9.198;2023-04-25T10:08:32;7.20;99.90
11934;DHT22;6026;48.784;9.198;2023-04-25T10:11:04;7.20;99.90
11934;DHT22;6026;48.784;9.198;2023-04-25T10:13:30;7.00;99.90
11934;DHT22;6026;48.784;9.198;2023-04-25T10:15:58;6.90;99.90
11934;DHT22;6026;48.784;9.198;2023-04-25T10:18:25;6.80;99.90
11934;DHT22;6026;48.784;9.198;2023-04-25T10:20:51;6.80;99.90
11934;DHT22;6026;48.784;9.198;2023-04-25T10:23:17;6.70;99.90
11934;DHT22;6026;48.784;9.198;2023-04-25T10:25:43;6.70;99.90
11934;DHT22;6026;48.784;9.198;2023-04-25T10:28:09;6.60;99.90
11934;DHT22;6026;48.784;9.198;2023-04-25T10:30:34;6.60;99.90
11934;DHT22;6026;48.784;9.198;2023-04-25T10:33:00;6.60;99.90
11934;DHT22;6026;48.784;9.198;2023-04-25T10:35:28;6.60;99.90
11934;DHT22;6026;48.784;9.198;2023-04-25T10:38:09;6.70;99.90
11934;DHT22;6026;48.784;9.198;2023-04-25T10:40:36;6.80;99.90
11934;DHT22;6026;48.784;9.198;2023-04-25T10:43:33;6.80;99.90
11934;DHT22;6026;48.784;9.198;2023-04-25T10:46:00;6.90;99.90
11934;DHT22;6026;48.784;9.198;2023-04-25T10:48:26;6.90;99.90
11934;DHT22;6026;48.784;9.198;2023-04-25T10:51:12;6.90;99.90
11934;DHT22;6026;48.784;9.198;2023-04-25T10:53:40;6.90;99.90
11934;DHT22;6026;48.784;9.198;2023-04-25T10:56:16;6.80;99.90
11934;DHT22;6026;48.784;9.198;2023-04-25T10:58:43;6.70;99.90
11934;DHT22;6026;48.784;9.198;2023-04-25T11:01:09;6.70;99.90
11934;DHT22;6026;48.784;9.198;2023-04-25T11:03:42;6.70;99.90
11934;DHT22;6026;48.784;9.198;2023-04-25T11:06:23;6.70;99.90
11934;DHT22;6026;48.784;9.198;2023-04-25T11:08:51;6.70;99.90
11934;DHT22;6026;48.784;9.198;2023-04-25T11:11:18;6.70;99.90
11934;DHT22;6026;48.784;9.198;2023-04-25T11:13:44;6.70;99.90
11934;DHT22;6026;48.784;9.198;2023-04-25T11:16:10;6.70;99.90
11934;DHT22;6026;48.784;9.198;2023-04-25T11:18:35;6.70;99.90
11934;DHT22;6026;48.784;9.198;2023-04-25T11:21:02;6.70;99.90
11934;DHT22;6026;48.784;9.198;2023-04-25T11:23:30;6.70;99.90
11934;DHT22;6026;48.784;9.198;2023-04-25T11:25:55;6.70;99.90
11934;DHT22;6026;48.784;9.198;2023-04-25T11:28:22;6.90;99.90
11934;DHT22;6026;48.784;9.198;2023-04-25T11:30:49;6.80;99.90
11934;DHT22;6026;48.784;9.198;2023-04-25T11:33:15;6.80;99.90
11934;DHT22;6026;48.784;9.198;2023-04-25T11:35:41;6.80;99.90
11934;DHT22;6026;48.784;9.198;2023-04-25T11:38:07;6.80;99.90
11934;DHT22;6026;48.784;9.198;2023-04-25T11:40:32;6.80;99.90
11934;DHT22;6026;48.784;9.198;2023-04-25T11:43:00;6.70;99.90
11934;DHT22;6026;48.784;9.198;2023-04-25T11:45:26;6.70;99.90
11934;DHT22;6026;48.784;9.198;2023-04-25T11:47:52;6.80;99.90
11934;DHT22;6026;48.784;9.198;2023-04-25T11:50:18;6.90;99.90
11934;DHT22;6026;48.784;9.198;2023-04-25T11:52:46;7.00;99.90
11934;DHT22;6026;48.784;9.198;2023-04-25T11:55:16;7.10;99.90
11934;DHT22;6026;48.784;9.198;2023-04-25T11:57:44;7.20;99.90
11934;DHT22;6026;48.784;9.198;2023-04-25T12:00:15;7.10;99.90
11934;DHT22;6026;48.784;9.198;2023-04-25T12:03:00;7.00;99.90
11934;DHT22;6026;48.784;9.198;2023-04-25T12:05:29;6.90;99.90
11934;DHT22;6026;48.784;9.198;2023-04-25T12:07:56;7.00;99.90
11934;DHT22;6026;48.784;9.198;2023-04-25T12:10:22;7.00;99.90
11934;DHT22;6026;48.784;9.198;2023-04-25T12:12:49;7.00;99.90
11934;DHT22;6026;48.784;9.198;2023-04-25T12:17:45;7.30;99.90
11934;DHT22;6026;48.784;9.198;2023-04-25T12:20:24;7.50;99.90
11934;DHT22;6026;48.784;9.198;2023-04-25T12:22:51;7.70;99.90
11934;DHT22;6026;48.784;9.198;2023-04-25T12:28:14;7.60;99.90
11934;DHT22;6026;48.784;9.198;2023-04-25T12:30:59;7.50;99.90
11934;DHT22;6026;48.784;9.198;2023-04-25T12:33:27;7.30;99.90
11934;DHT22;6026;48.784;9.198;2023-04-25T12:35:54;7.20;99.90
11934;DHT22;6026;48.784;9.198;2023-04-25T12:38:29;7.20;99.90
11934;DHT22;6026;48.784;9.198;2023-04-25T12:40:56;7.10;99.90
11934;DHT22;6026;48.784;9.198;2023-04-25T12:43:22;7.20;99.90
11934;DHT22;6026;48.784;9.198;2023-04-25T12:45:52;7.20;99.90
11934;DHT22;6026;48.784;9.198;2023-04-25T12:48:19;7.20;99.90
11934;DHT22;6026;48.784;9.198;2023-04-25T12:50:45;7.30;99.90
11934;DHT22;6026;48.784;9.198;2023-04-25T12:53:13;7.40;99.90
11934;DHT22;6026;48.784;9.198;2023-04-25T12:55:38;7.60;99.90
11934;DHT22;6026;48.784;9.198;2023-04-25T12:58:04;7.80;99.90
11934;DHT22;6026;48.784;9.198;2023-04-25T13:00:30;8.00;99.90
11934;DHT22;6026;48.784;9.198;2023-04-25T13:02:56;8.20;99.90
11934;DHT22;6026;48.784;9.198;2023-04-25T13:05:21;8.30;99.90
11934;DHT22;6026;48.784;9.198;2023-04-25T13:07:47;8.40;99.90
11934;DHT22;6026;48.784;9.198;2023-04-25T13:10:13;8.40;99.90
11934;DHT22;6026;48.784;9.198;2023-04-25T13:12:38;8.60;99.90
11934;DHT22;6026;48.784;9.198;2023-04-25T13:15:04;8.70;99.90
11934;DHT22;6026;48.784;9.198;2023-04-25T13:17:30;8.70;99.90
11934;DHT22;6026;48.784;9.198;2023-04-25T13:19:55;8.70;99.90
11934;DHT22;6026;48.784;9.198;2023-04-25T13:22:21;8.90;99.90
11934;DHT22;6026;48.784;9.198;2023-04-25T13:24:46;8.90;99.90
11934;DHT22;6026;48.784;9.198;2023-04-25T13:27:13;9.00;99.90
11934;DHT22;6026;48.784;9.198;2023-04-25T13:29:38;9.00;99.90
11934;DHT22;6026;48.784;9.198;2023-04-25T13:32:06;9.00;99.90
11934;DHT22;6026;48.784;9.198;2023-04-25T13:34:32;9.20;99.90
11934;DHT22;6026;48.784;9.198;2023-04-25T13:36:57;9.40;99.90
11934;DHT22;6026;48.784;9.198;2023-04-25T13:39:23;9.60;99.90
11934;DHT22;6026;48.784;9.198;2023-04-25T13:41:48;9.90;99.90
11934;DHT22;6026;48.784;9.198;2023-04-25T13:44:14;10.10;99.90
11934;DHT22;6026;48.784;9.198;2023-04-25T13:46:39;10.00;99.90
11934;DHT22;6026;48.784;9.198;2023-04-25T13:49:05;9.80;99.90
11934;DHT22;6026;48.784;9.198;2023-04-25T13:51:31;9.80;99.90
11934;DHT22;6026;48.784;9.198;2023-04-25T13:53:57;9.80;99.90
11934;DHT22;6026;48.784;9.198;2023-04-25T13:56:22;9.80;99.90
11934;DHT22;6026;48.784;9.198;2023-04-25T13:58:51;9.80;99.90
11934;DHT22;6026;48.784;9.198;2023-04-25T14:01:17;10.00;99.90
11934;DHT22;6026;48.784;9.198;2023-04-25T14:03:44;10.10;99.90
11934;DHT22;6026;48.784;9.198;2023-04-25T14:06:11;10.40;99.90
11934;DHT22;6026;48.784;9.198;2023-04-25T14:08:38;10.90;99.90
11934;DHT22;6026;48.784;9.198;2023-04-25T14:11:03;10.70;99.90
11934;DHT22;6026;48.784;9.198;2023-04-25T14:13:29;10.70;99.90
11934;DHT22;6026;48.784;9.198;2023-04-25T14:15:54;10.50;99.90
11934;DHT22;6026;48.784;9.198;2023-04-25T14:18:20;10.40;99.90
11934;DHT22;6026;48.784;9.198;2023-04-25T14:20:46;10.60;99.90
11934;DHT22;6026;48.784;9.198;2023-04-25T14:23:11;11.20;99.90
11934;DHT22;6026;48.784;9.198;2023-04-25T14:25:37;11.60;99.90
11934;DHT22;6026;48.784;9.198;2023-04-25T14:28:03;12.00;99.90
11934;DHT22;6026;48.784;9.198;2023-04-25T14:30:29;12.40;99.90
11934;DHT22;6026;48.784;9.198;2023-04-25T14:32:54;12.10;99.90
11934;DHT22;6026;48.784;9.198;2023-04-25T14:35:20;12.30;99.90
11934;DHT22;6026;48.784;9.198;2023-04-25T14:37:46;12.70;99.90
11934;DHT22;6026;48.784;9.198;2023-04-25T14:40:12;13.20;99.90
11934;DHT22;6026;48.784;9.198;2023-04-25T14:42:40;13.20;99.90
11934;DHT22;6026;48.784;9.198;2023-04-25T14:45:07;13.00;99.90
11934;DHT22;6026;48.784;9.198;2023-04-25T14:47:33;12.80;99.90
11934;DHT22;6026;48.784;9.198;2023-04-25T14:49:58;12.50;99.90
11934;DHT22;6026;48.784;9.198;2023-04-25T14:52:24;12.30;99.90
11934;DHT22;6026;48.784;9.198;2023-04-25T14:54:51;12.20;99.90
11934;DHT22;6026;48.784;9.198;2023-04-25T14:57:17;12.10;99.90
11934;DHT22;6026;48.784;9.198;2023-04-25T14:59:42;12.10;99.90
11934;DHT22;6026;48.784;9.198;2023-04-25T15:02:08;12.00;99.90
11934;DHT22;6026;48.784;9.198;2023-04-25T15:04:33;11.90;99.90
11934;DHT22;6026;48.784;9.198;2023-04-25T15:06:59;11.90;99.90
11934;DHT22;6026;48.784;9.198;2023-04-25T15:09:24;11.80;99.90
11934;DHT22;6026;48.784;9.198;2023-04-25T15:11:51;11.50;99.90
11934;DHT22;6026;48.784;9.198;2023-04-25T15:14:17;11.50;99.90
11934;DHT22;6026;48.784;9.198;2023-04-25T15:16:42;11.30;99.90
11934;DHT22;6026;48.784;9.198;2023-04-25T15:19:08;11.20;99.90
11934;DHT22;6026;48.784;9.198;2023-04-25T15:21:34;11.10;99.90
11934;DHT22;6026;48.784;9.198;2023-04-25T15:24:00;11.20;99.90
11934;DHT22;6026;48.784;9.198;2023-04-25T15:26:26;11.50;99.90
11934;DHT22;6026;48.784;9.198;2023-04-25T15:28:52;11.80;99.90
11934;DHT22;6026;48.784;9.198;2023-04-25T15:31:18;12.00;99.90
11934;DHT22;6026;48.784;9.198;2023-04-25T15:33:43;12.00;99.90
11934;DHT22;6026;48.784;9.198;2023-04-25T15:36:09;11.90;99.90
11934;DHT22;6026;48.784;9.198;2023-04-25T15:38:35;11.80;99.90
11934;DHT22;6026;48.784;9.198;2023-04-25T15:41:01;11.70;99.90
11934;DHT22;6026;48.784;9.198;2023-04-25T15:43:27;11.60;99.90
11934;DHT22;6026;48.784;9.198;2023-04-25T15:45:53;11.50;99.90
11934;DHT22;6026;48.784;9.198;2023-04-25T15:48:18;11.40;99.90
11934;DHT22;6026;48.784;9.198;2023-04-25T15:50:44;11.40;99.90
11934;DHT22;6026;48.784;9.198;2023-04-25T15:53:10;11.20;99.90
11934;DHT22;6026;48.784;9.198;2023-04-25T15:55:36;11.10;99.90
11934;DHT22;6026;48.784;9.198;2023-04-25T15:58:02;11.00;99.90
11934;DHT22;6026;48.784;9.198;2023-04-25T16:00:27;11.00;99.90
11934;DHT22;6026;48.784;9.198;2023-04-25T16:02:53;10.80;99.90
11934;DHT22;6026;48.784;9.198;2023-04-25T16:05:19;10.80;99.90
11934;DHT22;6026;48.784;9.198;2023-04-25T16:07:45;10.80;99.90
11934;DHT22;6026;48.784;9.198;2023-04-25T16:10:11;10.80;99.90